sensor_id;sensor_type;location;lat;lon;timestamp;P1;durP1;ratioP1;P2;durP2;ratioP2
1603;SDS011;795;49.296;11.348;2023-04-21T00:01:14;21.50;;;16.10;;
1603;SDS011;795;49.296;11.348;2023-04-21T00:03:43;20.17;;;15.13;;
1603;SDS011;795;49.296;11.348;2023-04-21T00:06:11;21.27;;;15.70;;
1603;SDS011;795;49.296;11.348;2023-04-21T00:08:38;20.87;;;16.27;;
1603;SDS011;795;49.296;11.348;2023-04-21T00:11:06;20.90;;;14.90;;
1603;SDS011;795;49.296;11.348;2023-04-21T00:13:34;20.37;;;15.90;;
1603;SDS011;795;49.296;11.348;2023-04-21T00:16:02;22.80;;;15.50;;
1603;SDS011;795;49.296;11.348;2023-04-21T00:18:29;24.00;;;16.83;;
1603;SDS011;795;49.296;11.348;2023-04-21T00:20:56;21.93;;;16.60;;
1603;SDS011;795;49.296;11.348;2023-04-21T00:23:23;27.93;;;17.60;;
1603;SDS011;795;49.296;11.348;2023-04-21T00:25:50;22.40;;;16.07;;
1603;SDS011;795;49.296;11.348;2023-04-21T00:28:18;28.47;;;18.93;;
1603;SDS011;795;49.296;11.348;2023-04-21T00:30:45;23.97;;;17.47;;
1603;SDS011;795;49.296;11.348;2023-04-21T00:33:12;25.20;;;18.50;;
1603;SDS011;795;49.296;11.348;2023-04-21T00:35:39;23.60;;;16.73;;
1603;SDS011;795;49.296;11.348;2023-04-21T00:38:06;25.30;;;17.40;;
1603;SDS011;795;49.296;11.348;2023-04-21T00:40:33;23.37;;;17.43;;
1603;SDS011;795;49.296;11.348;2023-04-21T00:43:00;26.07;;;17.80;;
1603;SDS011;795;49.296;11.348;2023-04-21T00:45:30;24.57;;;17.37;;
1603;SDS011;795;49.296;11.348;2023-04-21T00:47:57;21.80;;;15.13;;
1603;SDS011;795;49.296;11.348;2023-04-21T00:50:24;25.70;;;16.77;;
1603;SDS011;795;49.296;11.348;2023-04-21T00:52:52;27.47;;;17.00;;
1603;SDS011;795;49.296;11.348;2023-04-21T00:55:19;25.73;;;18.90;;
1603;SDS011;795;49.296;11.348;2023-04-21T00:57:47;22.27;;;16.43;;
1603;SDS011;795;49.296;11.348;2023-04-21T01:00:17;28.13;;;19.10;;
1603;SDS011;795;49.296;11.348;2023-04-21T01:02:44;26.63;;;17.93;;
1603;SDS011;795;49.296;11.348;2023-04-21T01:05:12;24.37;;;18.03;;
1603;SDS011;795;49.296;11.348;2023-04-21T01:07:41;26.63;;;18.10;;
1603;SDS011;795;49.296;11.348;2023-04-21T01:10:09;26.93;;;18.13;;
1603;SDS011;795;49.296;11.348;2023-04-21T01:12:43;21.03;;;16.70;;
1603;SDS011;795;49.296;11.348;2023-04-21T01:15:14;24.83;;;16.70;;
1603;SDS011;795;49.296;11.348;2023-04-21T01:17:43;22.17;;;16.10;;
1603;SDS011;795;49.296;11.348;2023-04-21T01:20:11;24.20;;;16.23;;
1603;SDS011;795;49.296;11.348;2023-04-21T01:22:40;22.17;;;15.07;;
1603;SDS011;795;49.296;11.348;2023-04-21T01:25:10;23.67;;;16.60;;
1603;SDS011;795;49.296;11.348;2023-04-21T01:27:37;22.63;;;17.27;;
1603;SDS011;795;49.296;11.348;2023-04-21T01:30:04;19.23;;;15.00;;
1603;SDS011;795;49.296;11.348;2023-04-21T01:32:33;22.93;;;16.10;;
1603;SDS011;795;49.296;11.348;2023-04-21T01:35:01;24.07;;;17.23;;
1603;SDS011;795;49.296;11.348;2023-04-21T01:37:29;29.17;;;20.73;;
1603;SDS011;795;49.296;11.348;2023-04-21T01:39:58;23.43;;;18.27;;
1603;SDS011;795;49.296;11.348;2023-04-21T01:42:31;26.00;;;18.90;;
1603;SDS011;795;49.296;11.348;2023-04-21T01:45:01;35.53;;;21.20;;
1603;SDS011;795;49.296;11.348;2023-04-21T01:47:29;28.07;;;20.43;;
1603;SDS011;795;49.296;11.348;2023-04-21T01:49:56;28.40;;;19.53;;
1603;SDS011;795;49.296;11.348;2023-04-21T01:52:23;31.70;;;21.73;;
1603;SDS011;795;49.296;11.348;2023-04-21T01:54:50;31.60;;;22.10;;
1603;SDS011;795;49.296;11.348;2023-04-21T01:57:18;31.80;;;21.47;;
1603;SDS011;795;49.296;11.348;2023-04-21T01:59:45;36.47;;;24.00;;
1603;SDS011;795;49.296;11.348;2023-04-21T02:02:14;30.30;;;20.20;;
1603;SDS011;795;49.296;11.348;2023-04-21T02:04:41;30.93;;;20.73;;
1603;SDS011;795;49.296;11.348;2023-04-21T02:07:08;31.57;;;21.70;;
1603;SDS011;795;49.296;11.348;2023-04-21T02:09:35;32.27;;;21.47;;
1603;SDS011;795;49.296;11.348;2023-04-21T02:12:02;29.20;;;21.60;;
1603;SDS011;795;49.296;11.348;2023-04-21T02:14:29;27.67;;;20.53;;
1603;SDS011;795;49.296;11.348;2023-04-21T02:16:57;33.37;;;22.60;;
1603;SDS011;795;49.296;11.348;2023-04-21T02:19:23;30.60;;;21.70;;
1603;SDS011;795;49.296;11.348;2023-04-21T02:21:50;29.70;;;23.00;;
1603;SDS011;795;49.296;11.348;2023-04-21T02:24:17;30.87;;;22.77;;
1603;SDS011;795;49.296;11.348;2023-04-21T02:26:44;33.60;;;22.37;;
1603;SDS011;795;49.296;11.348;2023-04-21T02:29:11;29.30;;;20.40;;
1603;SDS011;795;49.296;11.348;2023-04-21T02:31:39;27.83;;;18.60;;
1603;SDS011;795;49.296;11.348;2023-04-21T02:34:24;27.47;;;20.30;;
1603;SDS011;795;49.296;11.348;2023-04-21T02:36:51;22.53;;;16.57;;
1603;SDS011;795;49.296;11.348;2023-04-21T02:39:18;27.70;;;19.30;;
1603;SDS011;795;49.296;11.348;2023-04-21T02:41:45;28.20;;;19.97;;
1603;SDS011;795;49.296;11.348;2023-04-21T02:44:12;24.83;;;17.87;;
1603;SDS011;795;49.296;11.348;2023-04-21T02:46:39;30.37;;;19.20;;
1603;SDS011;795;49.296;11.348;2023-04-21T02:49:07;25.67;;;18.53;;
1603;SDS011;795;49.296;11.348;2023-04-21T02:51:35;24.63;;;18.50;;
1603;SDS011;795;49.296;11.348;2023-04-21T02:54:02;24.97;;;18.63;;
1603;SDS011;795;49.296;11.348;2023-04-21T02:56:30;23.70;;;18.40;;
1603;SDS011;795;49.296;11.348;2023-04-21T02:58:57;24.30;;;18.30;;
1603;SDS011;795;49.296;11.348;2023-04-21T03:01:24;27.77;;;17.20;;
1603;SDS011;795;49.296;11.348;2023-04-21T03:03:51;27.10;;;19.20;;
1603;SDS011;795;49.296;11.348;2023-04-21T03:06:18;25.27;;;18.67;;
1603;SDS011;795;49.296;11.348;2023-04-21T03:08:45;26.53;;;18.27;;
1603;SDS011;795;49.296;11.348;2023-04-21T03:11:12;27.00;;;18.20;;
1603;SDS011;795;49.296;11.348;2023-04-21T03:13:39;26.60;;;18.47;;
1603;SDS011;795;49.296;11.348;2023-04-21T03:16:06;30.00;;;20.57;;
1603;SDS011;795;49.296;11.348;2023-04-21T03:18:34;27.37;;;20.90;;
1603;SDS011;795;49.296;11.348;2023-04-21T03:21:01;26.40;;;19.70;;
1603;SDS011;795;49.296;11.348;2023-04-21T03:23:28;33.37;;;22.30;;
1603;SDS011;795;49.296;11.348;2023-04-21T03:25:55;31.20;;;21.37;;
1603;SDS011;795;49.296;11.348;2023-04-21T03:28:22;30.93;;;21.00;;
1603;SDS011;795;49.296;11.348;2023-04-21T03:30:49;34.83;;;21.60;;
1603;SDS011;795;49.296;11.348;2023-04-21T03:33:16;29.57;;;21.70;;
1603;SDS011;795;49.296;11.348;2023-04-21T03:35:42;32.73;;;21.27;;
1603;SDS011;795;49.296;11.348;2023-04-21T03:38:09;31.47;;;21.27;;
1603;SDS011;795;49.296;11.348;2023-04-21T03:40:36;33.33;;;22.37;;
1603;SDS011;795;49.296;11.348;2023-04-21T03:43:04;35.53;;;23.90;;
1603;SDS011;795;49.296;11.348;2023-04-21T03:45:33;39.00;;;24.00;;
1603;SDS011;795;49.296;11.348;2023-04-21T03:48:01;33.80;;;21.33;;
1603;SDS011;795;49.296;11.348;2023-04-21T03:50:28;27.53;;;20.53;;
1603;SDS011;795;49.296;11.348;2023-04-21T03:52:55;30.10;;;20.30;;
1603;SDS011;795;49.296;11.348;2023-04-21T03:55:23;37.80;;;24.83;;
1603;SDS011;795;49.296;11.348;2023-04-21T03:57:50;33.33;;;22.77;;
1603;SDS011;795;49.296;11.348;2023-04-21T04:00:17;30.97;;;20.63;;
1603;SDS011;795;49.296;11.348;2023-04-21T04:02:43;32.20;;;21.03;;
1603;SDS011;795;49.296;11.348;2023-04-21T04:05:11;32.93;;;21.50;;
1603;SDS011;795;49.296;11.348;2023-04-21T04:07:39;29.80;;;22.30;;
1603;SDS011;795;49.296;11.348;2023-04-21T04:10:06;31.50;;;21.10;;
1603;SDS011;795;49.296;11.348;2023-04-21T04:12:33;30.67;;;20.47;;
1603;SDS011;795;49.296;11.348;2023-04-21T04:15:00;27.77;;;20.43;;
1603;SDS011;795;49.296;11.348;2023-04-21T04:17:27;30.73;;;23.10;;
1603;SDS011;795;49.296;11.348;2023-04-21T04:19:54;33.67;;;22.10;;
1603;SDS011;795;49.296;11.348;2023-04-21T04:22:21;29.57;;;20.97;;
1603;SDS011;795;49.296;11.348;2023-04-21T04:24:48;26.33;;;20.27;;
1603;SDS011;795;49.296;11.348;2023-04-21T04:27:16;27.23;;;20.03;;
1603;SDS011;795;49.296;11.348;2023-04-21T04:29:45;26.00;;;19.60;;
1603;SDS011;795;49.296;11.348;2023-04-21T04:32:14;34.87;;;23.40;;
1603;SDS011;795;49.296;11.348;2023-04-21T04:34:41;32.63;;;23.87;;
1603;SDS011;795;49.296;11.348;2023-04-21T04:37:08;30.60;;;21.10;;
1603;SDS011;795;49.296;11.348;2023-04-21T04:39:36;31.13;;;20.17;;
1603;SDS011;795;49.296;11.348;2023-04-21T04:42:05;28.43;;;20.20;;
1603;SDS011;795;49.296;11.348;2023-04-21T04:44:34;25.87;;;19.13;;
1603;SDS011;795;49.296;11.348;2023-04-21T04:47:02;31.70;;;20.40;;
1603;SDS011;795;49.296;11.348;2023-04-21T04:49:29;28.77;;;20.80;;
1603;SDS011;795;49.296;11.348;2023-04-21T04:51:56;31.23;;;21.47;;
1603;SDS011;795;49.296;11.348;2023-04-21T04:54:23;31.93;;;20.77;;
1603;SDS011;795;49.296;11.348;2023-04-21T04:56:50;32.53;;;23.40;;
1603;SDS011;795;49.296;11.348;2023-04-21T04:59:17;34.13;;;22.00;;
1603;SDS011;795;49.296;11.348;2023-04-21T05:01:44;35.83;;;21.93;;
1603;SDS011;795;49.296;11.348;2023-04-21T05:04:11;35.43;;;23.40;;
1603;SDS011;795;49.296;11.348;2023-04-21T05:06:42;32.50;;;22.70;;
1603;SDS011;795;49.296;11.348;2023-04-21T05:09:09;29.87;;;22.13;;
1603;SDS011;795;49.296;11.348;2023-04-21T05:11:36;35.60;;;24.07;;
1603;SDS011;795;49.296;11.348;2023-04-21T05:14:03;32.07;;;22.07;;
1603;SDS011;795;49.296;11.348;2023-04-21T05:16:29;30.93;;;22.80;;
1603;SDS011;795;49.296;11.348;2023-04-21T05:18:59;49.00;;;24.37;;
1603;SDS011;795;49.296;11.348;2023-04-21T05:21:28;36.60;;;23.30;;
1603;SDS011;795;49.296;11.348;2023-04-21T05:23:56;31.20;;;22.37;;
1603;SDS011;795;49.296;11.348;2023-04-21T05:26:24;29.70;;;22.30;;
1603;SDS011;795;49.296;11.348;2023-04-21T05:28:54;32.93;;;22.83;;
1603;SDS011;795;49.296;11.348;2023-04-21T05:31:23;34.60;;;23.77;;
1603;SDS011;795;49.296;11.348;2023-04-21T05:33:50;31.67;;;20.93;;
1603;SDS011;795;49.296;11.348;2023-04-21T05:36:17;25.47;;;21.33;;
1603;SDS011;795;49.296;11.348;2023-04-21T05:38:45;22.90;;;19.00;;
1603;SDS011;795;49.296;11.348;2023-04-21T05:41:12;26.50;;;18.13;;
1603;SDS011;795;49.296;11.348;2023-04-21T05:43:39;24.47;;;18.63;;
1603;SDS011;795;49.296;11.348;2023-04-21T05:46:07;18.90;;;15.40;;
1603;SDS011;795;49.296;11.348;2023-04-21T05:48:36;22.30;;;18.07;;
1603;SDS011;795;49.296;11.348;2023-04-21T05:51:09;22.50;;;18.40;;
1603;SDS011;795;49.296;11.348;2023-04-21T05:53:41;20.53;;;15.67;;
1603;SDS011;795;49.296;11.348;2023-04-21T05:56:11;24.13;;;16.87;;
1603;SDS011;795;49.296;11.348;2023-04-21T05:58:41;19.80;;;16.40;;
1603;SDS011;795;49.296;11.348;2023-04-21T06:01:08;19.13;;;16.27;;
1603;SDS011;795;49.296;11.348;2023-04-21T06:03:35;21.70;;;16.17;;
1603;SDS011;795;49.296;11.348;2023-04-21T06:06:03;22.87;;;15.83;;
1603;SDS011;795;49.296;11.348;2023-04-21T06:08:32;25.40;;;16.23;;
1603;SDS011;795;49.296;11.348;2023-04-21T06:10:59;23.27;;;18.27;;
1603;SDS011;795;49.296;11.348;2023-04-21T06:13:26;22.20;;;16.77;;
1603;SDS011;795;49.296;11.348;2023-04-21T06:15:53;18.27;;;15.23;;
1603;SDS011;795;49.296;11.348;2023-04-21T06:18:20;21.20;;;14.63;;
1603;SDS011;795;49.296;11.348;2023-04-21T06:20:49;24.03;;;15.47;;
1603;SDS011;795;49.296;11.348;2023-04-21T06:23:19;21.87;;;16.40;;
1603;SDS011;795;49.296;11.348;2023-04-21T06:25:47;17.83;;;15.83;;
1603;SDS011;795;49.296;11.348;2023-04-21T06:28:30;18.87;;;15.67;;
1603;SDS011;795;49.296;11.348;2023-04-21T06:31:00;18.33;;;16.30;;
1603;SDS011;795;49.296;11.348;2023-04-21T06:33:33;20.27;;;16.20;;
1603;SDS011;795;49.296;11.348;2023-04-21T06:36:00;18.73;;;16.00;;
1603;SDS011;795;49.296;11.348;2023-04-21T06:38:27;21.33;;;14.80;;
1603;SDS011;795;49.296;11.348;2023-04-21T06:40:54;16.60;;;14.00;;
1603;SDS011;795;49.296;11.348;2023-04-21T06:43:21;18.73;;;14.43;;
1603;SDS011;795;49.296;11.348;2023-04-21T06:45:48;17.53;;;13.20;;
1603;SDS011;795;49.296;11.348;2023-04-21T06:48:15;15.83;;;13.77;;
1603;SDS011;795;49.296;11.348;2023-04-21T06:50:42;16.47;;;13.90;;
1603;SDS011;795;49.296;11.348;2023-04-21T06:53:11;15.07;;;12.60;;
1603;SDS011;795;49.296;11.348;2023-04-21T06:55:38;14.77;;;12.50;;
1603;SDS011;795;49.296;11.348;2023-04-21T06:58:05;15.03;;;12.73;;
1603;SDS011;795;49.296;11.348;2023-04-21T07:00:32;16.77;;;13.37;;
1603;SDS011;795;49.296;11.348;2023-04-21T07:02:59;14.50;;;12.97;;
1603;SDS011;795;49.296;11.348;2023-04-21T07:05:26;16.73;;;12.07;;
1603;SDS011;795;49.296;11.348;2023-04-21T07:07:54;16.53;;;13.17;;
1603;SDS011;795;49.296;11.348;2023-04-21T07:10:25;13.43;;;11.20;;
1603;SDS011;795;49.296;11.348;2023-04-21T07:12:53;17.27;;;13.10;;
1603;SDS011;795;49.296;11.348;2023-04-21T07:15:21;14.73;;;13.13;;
1603;SDS011;795;49.296;11.348;2023-04-21T07:17:48;11.97;;;10.73;;
1603;SDS011;795;49.296;11.348;2023-04-21T07:20:15;13.10;;;10.93;;
1603;SDS011;795;49.296;11.348;2023-04-21T07:22:43;14.97;;;12.60;;
1603;SDS011;795;49.296;11.348;2023-04-21T07:25:10;12.90;;;11.53;;
1603;SDS011;795;49.296;11.348;2023-04-21T07:27:38;14.53;;;11.37;;
1603;SDS011;795;49.296;11.348;2023-04-21T07:30:05;14.17;;;11.60;;
1603;SDS011;795;49.296;11.348;2023-04-21T07:32:33;17.37;;;12.17;;
1603;SDS011;795;49.296;11.348;2023-04-21T07:35:04;13.70;;;11.03;;
1603;SDS011;795;49.296;11.348;2023-04-21T07:37:32;12.80;;;11.30;;
1603;SDS011;795;49.296;11.348;2023-04-21T07:39:59;14.20;;;11.30;;
1603;SDS011;795;49.296;11.348;2023-04-21T07:42:26;14.70;;;12.53;;
1603;SDS011;795;49.296;11.348;2023-04-21T07:44:53;16.70;;;11.80;;
1603;SDS011;795;49.296;11.348;2023-04-21T07:47:21;14.50;;;13.00;;
1603;SDS011;795;49.296;11.348;2023-04-21T07:49:48;15.60;;;12.07;;
1603;SDS011;795;49.296;11.348;2023-04-21T07:52:15;14.60;;;12.63;;
1603;SDS011;795;49.296;11.348;2023-04-21T07:54:42;13.10;;;11.80;;
1603;SDS011;795;49.296;11.348;2023-04-21T07:57:09;14.10;;;12.20;;
1603;SDS011;795;49.296;11.348;2023-04-21T07:59:36;13.50;;;10.60;;
1603;SDS011;795;49.296;11.348;2023-04-21T08:03:56;11.93;;;10.67;;
1603;SDS011;795;49.296;11.348;2023-04-21T08:06:23;12.50;;;10.77;;
1603;SDS011;795;49.296;11.348;2023-04-21T08:08:50;10.90;;;9.80;;
1603;SDS011;795;49.296;11.348;2023-04-21T08:11:18;12.30;;;10.83;;
1603;SDS011;795;49.296;11.348;2023-04-21T08:13:45;10.13;;;9.13;;
1603;SDS011;795;49.296;11.348;2023-04-21T08:16:12;12.53;;;9.73;;
1603;SDS011;795;49.296;11.348;2023-04-21T08:18:39;10.67;;;9.00;;
1603;SDS011;795;49.296;11.348;2023-04-21T08:21:06;13.40;;;10.37;;
1603;SDS011;795;49.296;11.348;2023-04-21T08:23:34;10.10;;;8.73;;
1603;SDS011;795;49.296;11.348;2023-04-21T08:26:01;10.17;;;9.17;;
1603;SDS011;795;49.296;11.348;2023-04-21T08:28:28;12.40;;;10.23;;
1603;SDS011;795;49.296;11.348;2023-04-21T08:30:55;12.80;;;10.50;;
1603;SDS011;795;49.296;11.348;2023-04-21T08:33:22;16.50;;;10.63;;
1603;SDS011;795;49.296;11.348;2023-04-21T08:35:49;12.63;;;8.80;;
1603;SDS011;795;49.296;11.348;2023-04-21T08:38:30;10.13;;;9.13;;
1603;SDS011;795;49.296;11.348;2023-04-21T08:40:58;11.33;;;8.93;;
1603;SDS011;795;49.296;11.348;2023-04-21T08:43:27;10.47;;;9.23;;
1603;SDS011;795;49.296;11.348;2023-04-21T08:45:55;14.30;;;10.27;;
1603;SDS011;795;49.296;11.348;2023-04-21T08:48:22;10.57;;;9.50;;
1603;SDS011;795;49.296;11.348;2023-04-21T08:50:52;8.97;;;8.17;;
1603;SDS011;795;49.296;11.348;2023-04-21T08:53:19;8.83;;;7.93;;
1603;SDS011;795;49.296;11.348;2023-04-21T08:55:50;8.13;;;7.40;;
1603;SDS011;795;49.296;11.348;2023-04-21T08:58:35;10.33;;;9.33;;
1603;SDS011;795;49.296;11.348;2023-04-21T09:01:02;6.93;;;6.33;;
1603;SDS011;795;49.296;11.348;2023-04-21T09:03:29;11.07;;;9.97;;
1603;SDS011;795;49.296;11.348;2023-04-21T09:06:01;10.63;;;8.87;;
1603;SDS011;795;49.296;11.348;2023-04-21T09:08:35;9.73;;;8.83;;
1603;SDS011;795;49.296;11.348;2023-04-21T09:11:08;7.63;;;6.93;;
1603;SDS011;795;49.296;11.348;2023-04-21T09:13:40;10.50;;;7.93;;
1603;SDS011;795;49.296;11.348;2023-04-21T09:16:18;10.67;;;8.07;;
1603;SDS011;795;49.296;11.348;2023-04-21T09:18:48;9.53;;;7.83;;
1603;SDS011;795;49.296;11.348;2023-04-21T09:21:17;8.80;;;7.93;;
1603;SDS011;795;49.296;11.348;2023-04-21T09:23:49;7.73;;;6.93;;
1603;SDS011;795;49.296;11.348;2023-04-21T09:26:18;9.63;;;8.20;;
1603;SDS011;795;49.296;11.348;2023-04-21T09:28:51;8.57;;;7.77;;
1603;SDS011;795;49.296;11.348;2023-04-21T09:31:20;7.57;;;6.87;;
1603;SDS011;795;49.296;11.348;2023-04-21T09:33:54;6.93;;;6.33;;
1603;SDS011;795;49.296;11.348;2023-04-21T09:36:26;8.27;;;7.57;;
1603;SDS011;795;49.296;11.348;2023-04-21T09:38:57;7.03;;;6.43;;
1603;SDS011;795;49.296;11.348;2023-04-21T09:41:47;8.00;;;7.20;;
1603;SDS011;795;49.296;11.348;2023-04-21T09:44:14;8.20;;;7.40;;
1603;SDS011;795;49.296;11.348;2023-04-21T09:46:43;8.57;;;6.10;;
1603;SDS011;795;49.296;11.348;2023-04-21T09:49:16;8.50;;;6.13;;
1603;SDS011;795;49.296;11.348;2023-04-21T09:51:48;9.80;;;5.97;;
1603;SDS011;795;49.296;11.348;2023-04-21T09:54:35;6.80;;;5.70;;
1603;SDS011;795;49.296;11.348;2023-04-21T09:57:20;6.43;;;5.83;;
1603;SDS011;795;49.296;11.348;2023-04-21T10:00:01;6.90;;;5.70;;
1603;SDS011;795;49.296;11.348;2023-04-21T10:02:46;6.50;;;6.00;;
1603;SDS011;795;49.296;11.348;2023-04-21T10:05:18;7.03;;;6.37;;
1603;SDS011;795;49.296;11.348;2023-04-21T10:07:46;6.73;;;6.13;;
1603;SDS011;795;49.296;11.348;2023-04-21T10:10:33;7.67;;;7.07;;
1603;SDS011;795;49.296;11.348;2023-04-21T10:13:00;7.10;;;6.50;;
1603;SDS011;795;49.296;11.348;2023-04-21T10:15:31;6.90;;;5.57;;
1603;SDS011;795;49.296;11.348;2023-04-21T10:18:10;6.67;;;6.00;;
1603;SDS011;795;49.296;11.348;2023-04-21T10:21:00;6.87;;;5.80;;
1603;SDS011;795;49.296;11.348;2023-04-21T10:23:58;8.37;;;6.07;;
1603;SDS011;795;49.296;11.348;2023-04-21T10:29:05;7.77;;;5.10;;
1603;SDS011;795;49.296;11.348;2023-04-21T10:34:17;6.03;;;5.43;;
1603;SDS011;795;49.296;11.348;2023-04-21T10:39:31;4.87;;;4.47;;
1603;SDS011;795;49.296;11.348;2023-04-21T10:42:24;5.60;;;5.10;;
1603;SDS011;795;49.296;11.348;2023-04-21T10:50:14;4.67;;;4.27;;
1603;SDS011;795;49.296;11.348;2023-04-21T10:53:18;5.70;;;5.10;;
1603;SDS011;795;49.296;11.348;2023-04-21T10:55:47;7.50;;;4.57;;
1603;SDS011;795;49.296;11.348;2023-04-21T10:58:15;4.97;;;4.57;;
1603;SDS011;795;49.296;11.348;2023-04-21T11:00:41;3.70;;;3.40;;
1603;SDS011;795;49.296;11.348;2023-04-21T11:03:09;5.00;;;4.17;;
1603;SDS011;795;49.296;11.348;2023-04-21T11:05:36;3.90;;;3.60;;
1603;SDS011;795;49.296;11.348;2023-04-21T11:08:13;4.20;;;3.60;;
1603;SDS011;795;49.296;11.348;2023-04-21T11:11:02;4.10;;;2.90;;
1603;SDS011;795;49.296;11.348;2023-04-21T11:13:28;3.47;;;3.27;;
1603;SDS011;795;49.296;11.348;2023-04-21T11:16:02;4.23;;;3.87;;
1603;SDS011;795;49.296;11.348;2023-04-21T11:18:33;3.87;;;3.53;;
1603;SDS011;795;49.296;11.348;2023-04-21T11:21:08;3.00;;;2.80;;
1603;SDS011;795;49.296;11.348;2023-04-21T11:23:39;3.37;;;3.17;;
1603;SDS011;795;49.296;11.348;2023-04-21T11:26:07;3.23;;;3.03;;
1603;SDS011;795;49.296;11.348;2023-04-21T11:28:34;3.20;;;3.00;;
1603;SDS011;795;49.296;11.348;2023-04-21T11:31:01;3.63;;;3.43;;
1603;SDS011;795;49.296;11.348;2023-04-21T11:33:35;3.40;;;3.10;;
1603;SDS011;795;49.296;11.348;2023-04-21T11:36:04;3.03;;;2.83;;
1603;SDS011;795;49.296;11.348;2023-04-21T11:38:36;4.57;;;2.80;;
1603;SDS011;795;49.296;11.348;2023-04-21T11:41:07;2.77;;;2.63;;
1603;SDS011;795;49.296;11.348;2023-04-21T11:43:36;2.80;;;2.60;;
1603;SDS011;795;49.296;11.348;2023-04-21T11:46:11;3.97;;;3.67;;
1603;SDS011;795;49.296;11.348;2023-04-21T11:48:43;3.40;;;3.20;;
1603;SDS011;795;49.296;11.348;2023-04-21T11:51:15;3.37;;;3.07;;
1603;SDS011;795;49.296;11.348;2023-04-21T11:53:47;2.73;;;2.53;;
1603;SDS011;795;49.296;11.348;2023-04-21T11:56:17;3.77;;;3.57;;
1603;SDS011;795;49.296;11.348;2023-04-21T11:58:50;3.23;;;2.93;;
1603;SDS011;795;49.296;11.348;2023-04-21T12:01:19;3.30;;;3.00;;
1603;SDS011;795;49.296;11.348;2023-04-21T12:03:51;2.90;;;2.70;;
1603;SDS011;795;49.296;11.348;2023-04-21T12:06:26;3.27;;;3.00;;
1603;SDS011;795;49.296;11.348;2023-04-21T12:09:01;3.33;;;2.40;;
1603;SDS011;795;49.296;11.348;2023-04-21T12:11:29;2.90;;;2.60;;
1603;SDS011;795;49.296;11.348;2023-04-21T12:13:57;3.70;;;2.63;;
1603;SDS011;795;49.296;11.348;2023-04-21T12:16:28;3.53;;;3.27;;
1603;SDS011;795;49.296;11.348;2023-04-21T12:18:55;3.03;;;2.83;;
1603;SDS011;795;49.296;11.348;2023-04-21T12:21:29;3.00;;;2.80;;
1603;SDS011;795;49.296;11.348;2023-04-21T12:23:56;3.43;;;3.13;;
1603;SDS011;795;49.296;11.348;2023-04-21T12:26:23;3.60;;;3.07;;
1603;SDS011;795;49.296;11.348;2023-04-21T12:28:50;5.97;;;3.33;;
1603;SDS011;795;49.296;11.348;2023-04-21T12:31:17;3.90;;;3.60;;
1603;SDS011;795;49.296;11.348;2023-04-21T12:33:44;4.13;;;3.70;;
1603;SDS011;795;49.296;11.348;2023-04-21T12:36:12;3.17;;;2.97;;
1603;SDS011;795;49.296;11.348;2023-04-21T12:38:38;3.20;;;3.00;;
1603;SDS011;795;49.296;11.348;2023-04-21T12:41:06;4.23;;;3.93;;
1603;SDS011;795;49.296;11.348;2023-04-21T12:43:33;3.80;;;3.50;;
1603;SDS011;795;49.296;11.348;2023-04-21T12:45:59;3.70;;;3.40;;
1603;SDS011;795;49.296;11.348;2023-04-21T12:48:27;3.70;;;3.40;;
1603;SDS011;795;49.296;11.348;2023-04-21T12:50:54;3.87;;;3.33;;
1603;SDS011;795;49.296;11.348;2023-04-21T12:53:21;4.10;;;3.27;;
1603;SDS011;795;49.296;11.348;2023-04-21T12:55:48;7.60;;;3.30;;
1603;SDS011;795;49.296;11.348;2023-04-21T12:58:30;3.53;;;3.23;;
1603;SDS011;795;49.296;11.348;2023-04-21T13:00:57;3.13;;;2.93;;
1603;SDS011;795;49.296;11.348;2023-04-21T13:03:24;3.17;;;2.97;;
1603;SDS011;795;49.296;11.348;2023-04-21T13:05:51;3.43;;;3.13;;
1603;SDS011;795;49.296;11.348;2023-04-21T13:08:18;3.47;;;3.27;;
1603;SDS011;795;49.296;11.348;2023-04-21T13:10:46;3.47;;;3.07;;
1603;SDS011;795;49.296;11.348;2023-04-21T13:13:13;3.57;;;3.27;;
1603;SDS011;795;49.296;11.348;2023-04-21T13:15:40;3.43;;;3.20;;
1603;SDS011;795;49.296;11.348;2023-04-21T13:18:07;3.10;;;2.80;;
1603;SDS011;795;49.296;11.348;2023-04-21T13:20:34;3.00;;;2.80;;
1603;SDS011;795;49.296;11.348;2023-04-21T13:23:01;3.00;;;2.80;;
1603;SDS011;795;49.296;11.348;2023-04-21T13:25:28;3.67;;;2.70;;
1603;SDS011;795;49.296;11.348;2023-04-21T13:27:55;3.20;;;2.53;;
1603;SDS011;795;49.296;11.348;2023-04-21T13:30:23;2.67;;;2.47;;
1603;SDS011;795;49.296;11.348;2023-04-21T13:32:50;3.20;;;3.00;;
1603;SDS011;795;49.296;11.348;2023-04-21T13:35:17;2.70;;;1.80;;
1603;SDS011;795;49.296;11.348;2023-04-21T13:37:44;3.30;;;2.50;;
1603;SDS011;795;49.296;11.348;2023-04-21T13:40:11;2.57;;;2.37;;
1603;SDS011;795;49.296;11.348;2023-04-21T13:42:38;2.70;;;2.50;;
1603;SDS011;795;49.296;11.348;2023-04-21T13:45:05;2.23;;;2.07;;
1603;SDS011;795;49.296;11.348;2023-04-21T13:47:33;2.60;;;2.40;;
1603;SDS011;795;49.296;11.348;2023-04-21T13:50:01;2.50;;;2.30;;
1603;SDS011;795;49.296;11.348;2023-04-21T13:52:30;1.80;;;1.70;;
1603;SDS011;795;49.296;11.348;2023-04-21T13:54:57;3.27;;;2.03;;
1603;SDS011;795;49.296;11.348;2023-04-21T13:57:24;2.83;;;2.63;;
1603;SDS011;795;49.296;11.348;2023-04-21T13:59:51;3.00;;;2.57;;
1603;SDS011;795;49.296;11.348;2023-04-21T14:02:19;2.17;;;2.07;;
1603;SDS011;795;49.296;11.348;2023-04-21T14:04:51;2.13;;;2.03;;
1603;SDS011;795;49.296;11.348;2023-04-21T14:07:19;3.43;;;2.70;;
1603;SDS011;795;49.296;11.348;2023-04-21T14:09:49;3.00;;;2.80;;
1603;SDS011;795;49.296;11.348;2023-04-21T14:12:17;2.80;;;2.20;;
1603;SDS011;795;49.296;11.348;2023-04-21T14:14:44;2.20;;;2.10;;
1603;SDS011;795;49.296;11.348;2023-04-21T14:17:11;2.30;;;2.10;;
1603;SDS011;795;49.296;11.348;2023-04-21T14:19:40;2.83;;;2.63;;
1603;SDS011;795;49.296;11.348;2023-04-21T14:22:08;2.63;;;2.30;;
1603;SDS011;795;49.296;11.348;2023-04-21T14:24:35;2.70;;;2.50;;
1603;SDS011;795;49.296;11.348;2023-04-21T14:27:02;2.70;;;2.50;;
1603;SDS011;795;49.296;11.348;2023-04-21T14:29:30;2.20;;;2.00;;
1603;SDS011;795;49.296;11.348;2023-04-21T14:31:58;2.63;;;2.43;;
1603;SDS011;795;49.296;11.348;2023-04-21T14:34:25;2.50;;;2.30;;
1603;SDS011;795;49.296;11.348;2023-04-21T14:36:53;2.97;;;2.77;;
1603;SDS011;795;49.296;11.348;2023-04-21T14:39:25;3.47;;;2.00;;
1603;SDS011;795;49.296;11.348;2023-04-21T14:41:53;2.80;;;2.60;;
1603;SDS011;795;49.296;11.348;2023-04-21T14:44:19;2.50;;;2.30;;
1603;SDS011;795;49.296;11.348;2023-04-21T14:46:46;3.27;;;2.20;;
1603;SDS011;795;49.296;11.348;2023-04-21T14:49:33;4.63;;;2.70;;
1603;SDS011;795;49.296;11.348;2023-04-21T14:52:01;2.50;;;2.30;;
1603;SDS011;795;49.296;11.348;2023-04-21T14:54:29;2.60;;;2.40;;
1603;SDS011;795;49.296;11.348;2023-04-21T14:56:55;3.10;;;2.43;;
1603;SDS011;795;49.296;11.348;2023-04-21T14:59:43;2.63;;;2.43;;
1603;SDS011;795;49.296;11.348;2023-04-21T15:02:11;2.83;;;2.63;;
1603;SDS011;795;49.296;11.348;2023-04-21T15:04:39;2.90;;;2.70;;
1603;SDS011;795;49.296;11.348;2023-04-21T15:07:07;2.53;;;2.43;;
1603;SDS011;795;49.296;11.348;2023-04-21T15:09:34;1.90;;;1.80;;
1603;SDS011;795;49.296;11.348;2023-04-21T15:12:02;2.47;;;2.27;;
1603;SDS011;795;49.296;11.348;2023-04-21T15:14:29;2.33;;;2.13;;
1603;SDS011;795;49.296;11.348;2023-04-21T15:16:56;2.80;;;2.60;;
1603;SDS011;795;49.296;11.348;2023-04-21T15:19:24;2.57;;;2.37;;
1603;SDS011;795;49.296;11.348;2023-04-21T15:21:51;1.90;;;1.80;;
1603;SDS011;795;49.296;11.348;2023-04-21T15:24:18;2.50;;;2.30;;
1603;SDS011;795;49.296;11.348;2023-04-21T15:26:45;2.40;;;2.20;;